Time;durP1;ratioP1;P1;durP2;ratioP2;P2;SDS_P1;SDS_P2;PMS_P1;PMS_P2;Temp;Humidity;BMP_temperature;BMP_pressure;BME280_temperature;BME280_humidity;BME280_pressure;Samples;Min_cycle;Max_cycle;Signal;HPM_P1;HPM_P2
2023/09/04 00:00:49;;;;;;;45.72;43.08;;;13.30;99.90;;;;;;6269200;22;20012;-80
2023/09/04 00:03:15;;;;;;;46.65;43.67;;;13.30;99.90;;;;;;6271115;22;20008;-79
2023/09/04 00:05:41;;;;;;;41.03;38.50;;;13.40;99.90;;;;;;6243079;22;20122;-79
2023/09/04 00:08:06;;;;;;;56.55;53.20;;;13.30;99.90;;;;;;6243539;22;20092;-80
2023/09/04 00:10:32;;;;;;;53.35;50.20;;;13.30;99.90;;;;;;6268559;22;20007;-79
2023/09/04 00:12:57;;;;;;;53.50;50.33;;;13.30;99.90;;;;;;6270929;22;20142;-79
2023/09/04 00:15:23;;;;;;;43.58;41.00;;;13.70;99.90;;;;;;6269162;22;20018;-79
2023/09/04 00:17:50;;;;;;;46.13;43.08;;;13.20;99.90;;;;;;6268642;22;20008;-80
2023/09/04 00:20:16;;;;;;;45.67;42.85;;;13.20;99.90;;;;;;6270436;22;20012;-79
2023/09/04 00:22:42;;;;;;;49.47;46.00;;;13.20;99.90;;;;;;6268414;22;20010;-79
2023/09/04 00:25:07;;;;;;;47.03;44.33;;;13.10;99.90;;;;;;6243087;22;20318;-79
2023/09/04 00:27:33;;;;;;;48.17;45.33;;;13.40;99.90;;;;;;6243337;22;20011;-80
2023/09/04 00:29:59;;;;;;;44.40;41.58;;;13.10;99.90;;;;;;6243244;22;20010;-80
2023/09/04 00:32:25;;;;;;;35.65;33.50;;;13.10;99.90;;;;;;6268177;22;20076;-80
2023/09/04 00:34:50;;;;;;;38.70;36.00;;;13.00;99.90;;;;;;6268478;22;20073;-80
2023/09/04 00:37:16;;;;;;;42.65;40.05;;;13.00;99.90;;;;;;6269203;22;20019;-80
2023/09/04 00:39:42;;;;;;;57.45;54.10;;;13.00;99.90;;;;;;6243413;22;20051;-79
2023/09/04 00:42:10;;;;;;;45.28;42.50;;;12.90;99.90;;;;;;6242589;22;20015;-80
2023/09/04 00:44:36;;;;;;;56.85;53.55;;;12.90;99.90;;;;;;6242784;22;20046;-79
2023/09/04 00:47:02;;;;;;;67.55;63.40;;;12.90;99.90;;;;;;6243115;22;20011;-80
2023/09/04 00:49:29;;;;;;;41.47;38.72;;;12.90;99.90;;;;;;6267913;22;20477;-79
2023/09/04 00:51:56;;;;;;;46.78;43.97;;;13.10;99.90;;;;;;6270099;22;20011;-79
2023/09/04 00:54:23;;;;;;;39.47;36.53;;;12.80;99.90;;;;;;6268940;22;20442;-79
2023/09/04 00:56:51;;;;;;;40.75;37.85;;;12.80;99.90;;;;;;6243084;22;20018;-79
2023/09/04 00:59:18;;;;;;;47.85;44.92;;;12.80;99.90;;;;;;6270399;22;20011;-79
2023/09/04 01:01:44;;;;;;;43.35;40.45;;;12.70;99.90;;;;;;6242830;22;20015;-79
2023/09/04 01:04:09;;;;;;;44.42;41.78;;;12.70;99.90;;;;;;6267540;22;20016;-79
2023/09/04 01:06:35;;;;;;;58.33;54.78;;;13.30;99.90;;;;;;6242979;22;20095;-79
2023/09/04 01:09:01;;;;;;;52.47;49.20;;;12.80;99.90;;;;;;6243016;22;20018;-79
2023/09/04 01:11:46;;;;;;;47.40;44.53;;;12.70;99.90;;;;;;6242241;22;20362;-79
2023/09/04 01:14:17;;;;;;;56.17;52.67;;;12.70;99.90;;;;;;6268884;22;20012;-79
2023/09/04 01:16:44;;;;;;;52.13;49.00;;;12.80;99.90;;;;;;6268183;22;20462;-79
2023/09/04 01:19:10;;;;;;;46.65;43.72;;;12.70;99.90;;;;;;6268245;22;20012;-79
2023/09/04 01:21:37;;;;;;;39.13;36.65;;;12.70;99.90;;;;;;6267668;22;20011;-79
2023/09/04 01:24:03;;;;;;;51.97;48.90;;;12.60;99.90;;;;;;6270187;22;20121;-79
2023/09/04 01:26:48;;;;;;;48.42;45.33;;;12.60;99.90;;;;;;6242786;22;20094;-79
2023/09/04 01:29:50;;;;;;;49.85;46.50;;;12.60;99.90;;;;;;6268422;22;20270;-79
2023/09/04 01:32:46;;;;;;;40.25;37.72;;;12.60;99.90;;;;;;6269528;22;20020;-79
2023/09/04 01:35:14;;;;;;;55.22;51.70;;;12.60;99.90;;;;;;6266984;22;20090;-79
2023/09/04 01:37:41;;;;;;;52.80;49.35;;;12.60;99.90;;;;;;6268524;22;20015;-80
2023/09/04 01:40:07;;;;;;;51.33;47.90;;;12.60;99.90;;;;;;6243019;22;20381;-80
2023/09/04 01:42:34;;;;;;;52.35;48.97;;;12.60;99.90;;;;;;6242187;22;20039;-79
2023/09/04 01:45:02;;;;;;;51.00;47.75;;;12.60;99.90;;;;;;6268196;22;20011;-79
2023/09/04 01:47:30;;;;;;;54.70;50.15;;;12.30;99.90;;;;;;6269360;22;20431;-79
2023/09/04 01:49:55;;;;;;;52.45;49.15;;;12.60;99.90;;;;;;6268160;22;20444;-79
2023/09/04 01:52:21;;;;;;;45.45;42.70;;;12.50;99.90;;;;;;6242342;22;20012;-79
2023/09/04 01:54:46;;;;;;;49.55;46.30;;;12.50;99.90;;;;;;6268828;22;20018;-79
2023/09/04 01:57:12;;;;;;;47.85;44.58;;;12.50;99.90;;;;;;6268787;22;20016;-79
2023/09/04 01:59:38;;;;;;;54.00;50.47;;;12.50;99.90;;;;;;6242806;22;20040;-79
2023/09/04 02:02:03;;;;;;;50.58;47.38;;;12.50;99.90;;;;;;6267435;22;20035;-79
2023/09/04 02:04:33;;;;;;;50.22;46.92;;;12.50;99.90;;;;;;6242474;22;20019;-79
2023/09/04 02:06:58;;;;;;;44.55;41.80;;;12.50;99.90;;;;;;6270352;22;20443;-79
2023/09/04 02:09:24;;;;;;;51.40;48.00;;;12.50;99.90;;;;;;6269710;22;20083;-79
2023/09/04 02:11:50;;;;;;;51.85;48.22;;;12.50;99.90;;;;;;6267760;22;20446;-79
2023/09/04 02:14:16;;;;;;;51.83;48.60;;;12.40;99.90;;;;;;6242822;22;20023;-79
2023/09/04 02:16:41;;;;;;;57.67;54.10;;;12.40;99.90;;;;;;6267762;22;20012;-79
2023/09/04 02:19:07;;;;;;;52.55;48.88;;;12.30;99.90;;;;;;6242633;22;20054;-79
2023/09/04 02:21:33;;;;;;;51.45;48.15;;;12.30;99.90;;;;;;6269007;22;20012;-79
2023/09/04 02:23:59;;;;;;;44.65;41.90;;;12.30;99.90;;;;;;6268254;22;20007;-80
2023/09/04 02:26:24;;;;;;;46.33;43.40;;;12.20;99.90;;;;;;6269989;22;20003;-79
2023/09/04 02:28:50;;;;;;;52.47;48.85;;;12.20;99.90;;;;;;6268112;22;20015;-80
2023/09/04 02:31:16;;;;;;;49.10;45.95;;;12.20;99.90;;;;;;6242363;22;20015;-79
2023/09/04 02:33:42;;;;;;;52.65;49.08;;;12.20;99.90;;;;;;6243151;22;20016;-79
2023/09/04 02:36:07;;;;;;;55.65;51.90;;;12.20;99.90;;;;;;6269355;22;20086;-80
2023/09/04 02:38:33;;;;;;;57.80;54.20;;;12.20;99.90;;;;;;6243674;22;20058;-79
2023/09/04 02:40:58;;;;;;;56.15;52.33;;;12.20;99.90;;;;;;6244021;22;20015;-79
2023/09/04 02:43:24;;;;;;;56.63;53.13;;;12.20;99.90;;;;;;6268818;22;20476;-79
2023/09/04 02:45:52;;;;;;;54.30;50.58;;;12.20;99.90;;;;;;6269311;22;20012;-79
2023/09/04 02:48:17;;;;;;;55.03;51.58;;;12.20;99.90;;;;;;6273214;22;20011;-79
2023/09/04 02:50:43;;;;;;;57.30;53.63;;;12.10;99.90;;;;;;6273020;22;20022;-79
2023/09/04 02:53:08;;;;;;;55.88;52.40;;;12.20;99.90;;;;;;6270977;22;20534;-79
2023/09/04 02:55:34;;;;;;;48.03;44.97;;;12.20;99.90;;;;;;6271423;22;20003;-79
2023/09/04 02:58:00;;;;;;;50.42;46.95;;;12.10;99.90;;;;;;6270953;22;20439;-79
2023/09/04 03:00:25;;;;;;;49.25;45.83;;;12.10;99.90;;;;;;6245451;22;20008;-79
2023/09/04 03:02:51;;;;;;;46.13;43.08;;;12.00;99.90;;;;;;6270436;22;20004;-79
2023/09/04 03:05:17;;;;;;;49.28;45.95;;;12.20;99.90;;;;;;6270333;22;20026;-80
2023/09/04 03:07:44;;;;;;;47.80;44.35;;;12.00;99.90;;;;;;6245479;22;20024;-80
2023/09/04 03:10:10;;;;;;;47.95;44.83;;;12.10;99.90;;;;;;6245783;22;20082;-79
2023/09/04 03:12:36;;;;;;;52.80;49.38;;;11.90;99.90;;;;;;6244820;22;20438;-79
2023/09/04 03:15:04;;;;;;;44.30;41.33;;;11.90;99.90;;;;;;6272967;22;20082;-79
2023/09/04 03:17:31;;;;;;;51.47;47.88;;;11.90;99.90;;;;;;6270794;22;20023;-79
2023/09/04 03:19:57;;;;;;;61.65;57.47;;;12.00;99.90;;;;;;6272719;22;20080;-79
2023/09/04 03:22:24;;;;;;;46.30;43.40;;;12.30;99.90;;;;;;6245216;22;20016;-79
2023/09/04 03:24:50;;;;;;;46.40;43.40;;;11.80;99.90;;;;;;6245139;22;20016;-79
2023/09/04 03:27:16;;;;;;;47.22;44.30;;;11.80;99.90;;;;;;6244866;22;20043;-79
2023/09/04 03:29:42;;;;;;;56.13;52.47;;;11.80;99.90;;;;;;6271259;22;20086;-79
2023/09/04 03:32:08;;;;;;;44.67;41.40;;;11.80;99.90;;;;;;6270649;22;20054;-79
2023/09/04 03:34:33;;;;;;;55.00;51.55;;;11.70;99.90;;;;;;6245226;22;20021;-79
2023/09/04 03:36:59;;;;;;;45.70;42.58;;;11.70;99.90;;;;;;6270662;22;20086;-79
2023/09/04 03:39:25;;;;;;;49.97;46.72;;;11.80;99.90;;;;;;6270802;22;20438;-79
2023/09/04 03:41:51;;;;;;;47.28;44.22;;;11.60;99.90;;;;;;6244689;22;20018;-79
2023/09/04 03:44:17;;;;;;;45.55;42.60;;;11.60;99.90;;;;;;6244913;22;20496;-79
2023/09/04 03:46:43;;;;;;;45.25;41.78;;;11.60;99.90;;;;;;6245283;22;20054;-79
2023/09/04 03:49:08;;;;;;;46.55;43.60;;;11.60;99.90;;;;;;6244799;22;20462;-79
2023/09/04 03:51:34;;;;;;;56.17;52.70;;;11.60;99.90;;;;;;6245042;22;20086;-79
2023/09/04 03:54:03;;;;;;;64.00;60.03;;;11.50;99.90;;;;;;6244981;22;20016;-79
2023/09/04 03:56:29;;;;;;;56.92;53.35;;;11.60;99.90;;;;;;6270082;22;20023;-79
2023/09/04 03:58:56;;;;;;;57.17;53.53;;;11.50;99.90;;;;;;6273703;22;20063;-81
2023/09/04 04:01:25;;;;;;;61.53;57.28;;;11.70;99.90;;;;;;6273077;22;20019;-80
2023/09/04 04:03:51;;;;;;;52.63;49.28;;;11.40;99.90;;;;;;6244315;22;20012;-80
2023/09/04 04:06:17;;;;;;;61.67;57.70;;;11.40;99.90;;;;;;6270584;22;20580;-80
2023/09/04 04:08:45;;;;;;;54.70;51.15;;;11.40;99.90;;;;;;6270745;22;20011;-80
2023/09/04 04:11:10;;;;;;;42.70;39.72;;;11.40;99.90;;;;;;6271738;22;20430;-80
2023/09/04 04:13:36;;;;;;;51.65;48.50;;;11.40;99.90;;;;;;6244773;22;20015;-81
2023/09/04 04:16:02;;;;;;;48.08;44.70;;;11.30;99.90;;;;;;6270634;22;20019;-80
2023/09/04 04:18:30;;;;;;;45.28;42.35;;;11.30;99.90;;;;;;6245071;22;20335;-80
2023/09/04 04:20:56;;;;;;;58.70;55.13;;;11.60;99.90;;;;;;6244729;22;20432;-80
2023/09/04 04:23:22;;;;;;;50.05;46.97;;;11.30;99.90;;;;;;6244781;22;20011;-80
2023/09/04 04:25:49;;;;;;;62.63;58.20;;;11.30;99.90;;;;;;6270150;22;20584;-80
2023/09/04 04:28:19;;;;;;;54.55;51.22;;;11.20;99.90;;;;;;6244636;22;20008;-80
2023/09/04 04:30:45;;;;;;;48.03;44.95;;;11.20;99.90;;;;;;6244779;22;20008;-81
2023/09/04 04:33:12;;;;;;;52.72;49.05;;;11.20;99.90;;;;;;6270011;22;20053;-80
2023/09/04 04:35:40;;;;;;;55.67;52.25;;;11.20;99.90;;;;;;6244713;22;20087;-80
2023/09/04 04:38:09;;;;;;;58.53;54.75;;;11.20;99.90;;;;;;6270551;22;20599;-80
2023/09/04 04:40:41;;;;;;;59.22;55.50;;;11.10;99.90;;;;;;6269392;22;20034;-80
2023/09/04 04:43:06;;;;;;;65.93;61.85;;;11.10;99.90;;;;;;6270221;22;20004;-80
2023/09/04 04:45:32;;;;;;;59.50;55.75;;;11.10;99.90;;;;;;6244470;22;20146;-80
2023/09/04 04:47:58;;;;;;;65.05;60.85;;;11.10;99.90;;;;;;6244375;22;20447;-80
2023/09/04 04:50:24;;;;;;;69.60;64.85;;;11.20;99.90;;;;;;6270604;22;20018;-80
2023/09/04 04:52:49;;;;;;;68.28;63.83;;;11.20;99.90;;;;;;6270182;22;20007;-81
2023/09/04 04:55:15;;;;;;;63.70;59.63;;;11.20;99.90;;;;;;6244111;22;20012;-80
2023/09/04 04:57:41;;;;;;;62.92;58.70;;;11.20;99.90;;;;;;6244484;22;20061;-81
2023/09/04 05:00:07;;;;;;;59.60;55.38;;;11.20;99.90;;;;;;6244336;22;20018;-80
2023/09/04 05:02:37;;;;;;;54.75;51.30;;;11.20;99.90;;;;;;6271715;22;20015;-81
2023/09/04 05:05:03;;;;;;;57.20;53.53;;;11.30;99.90;;;;;;6269380;22;20039;-81
2023/09/04 05:07:29;;;;;;;61.63;57.53;;;11.30;99.90;;;;;;6271739;22;20011;-80
2023/09/04 05:09:56;;;;;;;54.25;50.65;;;11.40;99.90;;;;;;6245451;22;20679;-80
2023/09/04 05:12:23;;;;;;;57.38;53.50;;;11.40;99.90;;;;;;6244366;22;20047;-80
2023/09/04 05:14:49;;;;;;;56.20;52.50;;;11.50;99.90;;;;;;6244388;22;20039;-80
2023/09/04 05:17:14;;;;;;;52.95;49.00;;;11.50;99.90;;;;;;6269635;22;20028;-80
2023/09/04 05:19:40;;;;;;;55.88;51.95;;;11.60;99.90;;;;;;6244026;22;20019;-79
2023/09/04 05:22:06;;;;;;;54.85;51.05;;;11.70;99.90;;;;;;6271204;22;20097;-80
2023/09/04 05:24:32;;;;;;;57.92;53.72;;;11.70;99.90;;;;;;6269098;22;20019;-80
2023/09/04 05:26:58;;;;;;;49.00;45.70;;;11.80;99.90;;;;;;6270204;22;20057;-80
2023/09/04 05:29:23;;;;;;;52.47;48.88;;;12.00;99.90;;;;;;6269497;22;20011;-80
2023/09/04 05:31:52;;;;;;;50.72;47.22;;;11.80;99.90;;;;;;6243916;22;20341;-80
2023/09/04 05:34:19;;;;;;;49.28;45.83;;;11.90;99.90;;;;;;6271530;22;20008;-80
2023/09/04 05:36:46;;;;;;;46.85;43.17;;;11.90;99.90;;;;;;6243716;22;20494;-79
2023/09/04 05:39:11;;;;;;;51.42;47.90;;;12.00;99.90;;;;;;6268944;22;20012;-79
2023/09/04 05:41:37;;;;;;;47.15;43.83;;;12.00;99.90;;;;;;6244198;22;20015;-79
2023/09/04 05:44:03;;;;;;;44.17;41.00;;;12.10;99.90;;;;;;6243771;22;20085;-80
2023/09/04 05:46:33;;;;;;;50.97;47.45;;;12.10;99.90;;;;;;6244218;22;20019;-80
2023/09/04 05:48:59;;;;;;;48.65;45.10;;;12.20;99.90;;;;;;6269496;22;20012;-80
2023/09/04 05:51:25;;;;;;;50.67;47.00;;;12.30;99.90;;;;;;6244049;22;20008;-78
2023/09/04 05:53:51;;;;;;;49.20;45.60;;;12.80;99.90;;;;;;6243361;22;20043;-80
2023/09/04 05:56:17;;;;;;;51.22;47.67;;;12.40;99.90;;;;;;6269701;22;20369;-81
2023/09/04 05:58:50;;;;;;;46.20;42.85;;;12.40;99.90;;;;;;6244076;22;20042;-79
2023/09/04 06:01:18;;;;;;;47.80;44.22;;;12.50;99.90;;;;;;6269592;22;20012;-80
2023/09/04 06:03:45;;;;;;;45.47;41.85;;;12.60;99.90;;;;;;6269145;22;20086;-79
2023/09/04 06:06:12;;;;;;;52.70;49.03;;;12.60;99.90;;;;;;6271100;22;20074;-80
2023/09/04 06:08:38;;;;;;;47.85;44.15;;;12.70;99.90;;;;;;6243244;22;20012;-79
2023/09/04 06:11:04;;;;;;;49.10;45.42;;;12.80;99.90;;;;;;6269850;22;20093;-80
2023/09/04 06:13:33;;;;;;;39.38;36.13;;;13.20;99.90;;;;;;6244116;22;20098;-80
2023/09/04 06:16:00;;;;;;;39.83;36.72;;;13.60;99.90;;;;;;6243586;22;20016;-80
2023/09/04 06:18:29;;;;;;;32.10;29.25;;;14.70;99.90;;;;;;6269491;22;20019;-80
2023/09/04 06:20:55;;;;;;;27.73;25.27;;;16.00;99.90;;;;;;6243946;22;20438;-80
2023/09/04 06:23:21;;;;;;;17.33;15.60;;;17.20;99.90;;;;;;6245776;22;20023;-79
2023/09/04 06:25:47;;;;;;;18.38;16.80;;;18.30;99.90;;;;;;6271478;22;20007;-80
2023/09/04 06:28:13;;;;;;;20.55;18.95;;;19.20;99.90;;;;;;6271584;22;20011;-80
2023/09/04 06:30:39;;;;;;;20.92;19.40;;;19.90;99.90;;;;;;6273353;22;20007;-80
2023/09/04 06:33:05;;;;;;;20.60;19.20;;;20.50;99.90;;;;;;6273033;22;20035;-80
2023/09/04 06:35:31;;;;;;;21.50;20.00;;;20.90;99.90;;;;;;6270716;22;20649;-80
2023/09/04 06:37:57;;;;;;;28.35;26.55;;;21.20;99.90;;;;;;6245582;22;20450;-80
2023/09/04 06:40:23;;;;;;;22.35;20.88;;;21.30;99.90;;;;;;6245506;22;20138;-80
2023/09/04 06:42:49;;;;;;;21.35;19.90;;;20.50;99.90;;;;;;6273326;22;20031;-80
2023/09/04 06:45:15;;;;;;;24.42;22.73;;;19.80;99.90;;;;;;6271178;22;20047;-80
2023/09/04 06:47:41;;;;;;;24.40;22.38;;;19.20;99.90;;;;;;6242280;22;20011;-80
2023/09/04 06:50:08;;;;;;;20.17;18.67;;;18.60;99.90;;;;;;6269934;22;20008;-80
2023/09/04 06:52:34;;;;;;;20.10;18.67;;;18.20;99.90;;;;;;6270873;22;20017;-80
2023/09/04 06:55:00;;;;;;;24.00;22.42;;;17.80;99.90;;;;;;6272830;22;20026;-80
2023/09/04 06:57:26;;;;;;;23.40;21.77;;;17.60;99.90;;;;;;6270551;22;20012;-80
2023/09/04 06:59:54;;;;;;;25.08;22.98;;;17.40;99.90;;;;;;6245284;22;20019;-79
2023/09/04 07:02:20;;;;;;;22.38;20.52;;;17.20;99.90;;;;;;6271101;22;20069;-81
2023/09/04 07:04:46;;;;;;;24.42;22.55;;;17.10;99.90;;;;;;6270030;22;20190;-81
2023/09/04 07:07:12;;;;;;;24.70;22.88;;;17.00;99.90;;;;;;6272569;22;20536;-80
2023/09/04 07:09:37;;;;;;;24.20;22.08;;;16.90;99.90;;;;;;6244825;22;20015;-80
2023/09/04 07:12:04;;;;;;;22.75;21.00;;;16.90;99.90;;;;;;6245280;22;20041;-81
2023/09/04 07:14:31;;;;;;;26.33;24.38;;;16.90;99.90;;;;;;6245365;22;20472;-81
2023/09/04 07:16:56;;;;;;;24.23;22.40;;;16.80;99.90;;;;;;6270830;22;20011;-81
2023/09/04 07:19:22;;;;;;;25.30;23.30;;;16.90;99.90;;;;;;6269389;22;20008;-80
2023/09/04 07:21:47;;;;;;;21.70;19.50;;;17.00;99.90;;;;;;6272360;22;20016;-80
2023/09/04 07:24:13;;;;;;;26.95;24.80;;;17.00;99.90;;;;;;6245034;22;20016;-80
2023/09/04 07:26:39;;;;;;;23.30;21.33;;;17.00;99.90;;;;;;6245597;22;20339;-83
2023/09/04 07:29:05;;;;;;;31.90;29.48;;;17.00;99.90;;;;;;6272161;22;20014;-80
2023/09/04 07:31:30;;;;;;;27.08;24.98;;;17.10;99.90;;;;;;6270580;22;20035;-80
2023/09/04 07:33:56;;;;;;;28.48;26.17;;;17.00;99.90;;;;;;6269538;22;20141;-80
2023/09/04 07:36:22;;;;;;;21.70;19.85;;;17.10;99.90;;;;;;6270953;22;20083;-81
2023/09/04 07:38:55;;;;;;;22.27;20.17;;;17.30;99.90;;;;;;6272670;22;20438;-81
2023/09/04 07:41:26;;;;;;;23.98;22.02;;;17.20;99.90;;;;;;6245570;22;20429;-81
2023/09/04 07:43:52;;;;;;;26.67;24.65;;;17.20;99.90;;;;;;6270864;22;20454;-81
2023/09/04 07:46:18;;;;;;;21.85;20.05;;;17.30;99.90;;;;;;6245642;22;20332;-81
2023/09/04 07:48:44;;;;;;;23.38;21.25;;;17.30;99.90;;;;;;6270295;22;20008;-80
2023/09/04 07:51:09;;;;;;;22.85;21.08;;;17.30;99.90;;;;;;6244734;22;20020;-80
2023/09/04 07:53:38;;;;;;;23.27;21.38;;;17.40;99.90;;;;;;6268544;22;20015;-81
2023/09/04 07:56:07;;;;;;;23.95;22.23;;;17.50;99.90;;;;;;6244152;22;20045;-81
2023/09/04 07:58:33;;;;;;;21.60;20.05;;;17.40;99.90;;;;;;6272740;22;20065;-81
2023/09/04 08:01:01;;;;;;;25.20;23.17;;;17.50;99.90;;;;;;6244959;22;20316;-79
2023/09/04 08:03:27;;;;;;;27.92;25.85;;;17.70;99.90;;;;;;6244132;22;20062;-79
2023/09/04 08:05:53;;;;;;;23.70;21.42;;;17.70;99.90;;;;;;6245097;22;20020;-80
2023/09/04 08:08:19;;;;;;;22.33;20.60;;;17.70;99.90;;;;;;6272089;22;20012;-80
2023/09/04 08:10:51;;;;;;;21.15;19.35;;;17.90;99.90;;;;;;6270572;22;20083;-82
2023/09/04 08:13:20;;;;;;;25.98;24.00;;;17.90;99.90;;;;;;6270316;22;20026;-82
2023/09/04 08:15:46;;;;;;;23.63;21.73;;;18.00;99.90;;;;;;6270141;22;20332;-79
2023/09/04 08:18:12;;;;;;;29.63;27.38;;;18.00;99.90;;;;;;6270203;22;20058;-79
2023/09/04 08:20:38;;;;;;;19.35;17.75;;;18.10;99.90;;;;;;6244811;22;20439;-80
2023/09/04 08:23:09;;;;;;;34.35;32.10;;;18.30;99.90;;;;;;6271638;22;20435;-79
2023/09/04 08:25:35;;;;;;;23.02;21.25;;;18.30;99.90;;;;;;6244893;22;20016;-79
2023/09/04 08:28:02;;;;;;;26.35;24.30;;;18.40;99.90;;;;;;6245065;22;20008;-79
2023/09/04 08:30:29;;;;;;;28.63;26.63;;;18.50;99.90;;;;;;6244577;22;20022;-79
2023/09/04 08:32:55;;;;;;;27.88;26.08;;;18.70;99.90;;;;;;6243979;22;20516;-79
2023/09/04 08:35:21;;;;;;;30.85;28.45;;;18.60;99.90;;;;;;6270104;22;20204;-79
2023/09/04 08:37:47;;;;;;;26.90;24.92;;;18.80;99.90;;;;;;6244722;22;20022;-80
2023/09/04 08:40:13;;;;;;;31.02;28.80;;;19.00;99.90;;;;;;6244487;22;20051;-79
2023/09/04 08:42:40;;;;;;;35.10;32.85;;;19.00;99.90;;;;;;6270723;22;20023;-80
2023/09/04 08:45:07;;;;;;;42.15;39.40;;;19.10;99.90;;;;;;6269504;22;20438;-79
2023/09/04 08:47:39;;;;;;;37.72;35.42;;;19.30;99.90;;;;;;6271384;22;20020;-80
2023/09/04 08:50:06;;;;;;;36.28;33.90;;;19.70;99.90;;;;;;6270660;22;20008;-80
2023/09/04 08:52:32;;;;;;;29.75;27.83;;;20.10;99.90;;;;;;6270176;22;20378;-79
2023/09/04 08:55:00;;;;;;;23.80;22.00;;;20.70;99.90;;;;;;6245192;22;20019;-80
2023/09/04 08:57:28;;;;;;;28.27;26.48;;;21.40;99.90;;;;;;6269974;22;20113;-80
2023/09/04 08:59:55;;;;;;;38.85;36.45;;;22.20;99.90;;;;;;6272225;22;20026;-79
2023/09/04 09:02:21;;;;;;;25.05;23.45;;;22.80;99.90;;;;;;6244057;22;20011;-79
2023/09/04 09:04:47;;;;;;;29.80;27.98;;;23.20;99.90;;;;;;6269640;22;20450;-80
2023/09/04 09:07:14;;;;;;;34.25;32.13;;;23.80;99.90;;;;;;6269762;22;20470;-80
2023/09/04 09:09:44;;;;;;;43.33;40.80;;;24.20;99.90;;;;;;6244173;22;20015;-80
2023/09/04 09:12:10;;;;;;;38.28;35.92;;;24.60;99.90;;;;;;6269832;22;20016;-79
2023/09/04 09:14:35;;;;;;;27.70;25.80;;;25.00;99.90;;;;;;6270107;22;20011;-80
2023/09/04 09:17:14;;;;;;;39.88;37.47;;;25.20;99.90;;;;;;6243567;22;20015;-79
2023/09/04 09:19:41;;;;;;;20.52;19.15;;;25.60;99.90;;;;;;6244148;22;20016;-79
2023/09/04 09:22:18;;;;;;;20.83;19.33;;;25.70;99.90;;;;;;6269772;22;20061;-79
2023/09/04 09:24:59;;;;;;;33.55;31.58;;;25.90;99.90;;;;;;6269596;22;20137;-80
2023/09/04 09:27:30;;;;;;;19.67;18.33;;;25.90;99.90;;;;;;6244753;22;20077;-80
2023/09/04 09:29:57;;;;;;;27.23;25.08;;;25.80;99.90;;;;;;6271090;22;20027;-80
2023/09/04 09:32:26;;;;;;;29.35;27.48;;;25.20;99.90;;;;;;6244044;22;20014;-80
2023/09/04 09:34:54;;;;;;;23.55;22.05;;;24.30;99.90;;;;;;6270044;22;20007;-79
2023/09/04 09:37:21;;;;;;;30.08;28.23;;;23.40;99.90;;;;;;6244086;22;20015;-80
2023/09/04 09:39:47;;;;;;;266.70;249.38;;;22.90;99.90;;;;;;6269790;22;20090;-80
2023/09/04 09:42:13;;;;;;;226.85;212.13;;;22.50;99.90;;;;;;6270911;22;20346;-80
2023/09/04 09:44:39;;;;;;;643.75;590.92;;;22.30;99.90;;;;;;6243520;22;20015;-80
2023/09/04 09:47:10;;;;;;;410.67;381.92;;;22.00;99.90;;;;;;6244175;22;20012;-80
2023/09/04 09:49:37;;;;;;;453.95;418.08;;;21.80;99.90;;;;;;6243841;22;20046;-80
2023/09/04 09:52:10;;;;;;;796.42;730.92;;;21.70;99.90;;;;;;6269618;22;20023;-80
2023/09/04 09:54:37;;;;;;;797.30;723.33;;;21.70;99.90;;;;;;6269923;22;20024;-80
2023/09/04 09:57:09;;;;;;;684.28;624.65;;;21.70;99.90;;;;;;6243773;22;20015;-80
2023/09/04 09:59:36;;;;;;;595.67;545.03;;;21.70;99.90;;;;;;6243546;22;20015;-80
2023/09/04 10:02:04;;;;;;;594.58;553.05;;;21.70;99.90;;;;;;6244398;22;20015;-80
2023/09/04 10:04:31;;;;;;;547.67;506.30;;;21.70;99.90;;;;;;6243663;22;20008;-80
2023/09/04 10:07:02;;;;;;;374.33;346.10;;;21.80;99.90;;;;;;6244146;22;20086;-80
2023/09/04 10:09:34;;;;;;;663.05;613.33;;;21.90;99.90;;;;;;6271176;22;20090;-80
2023/09/04 10:12:11;;;;;;;233.65;218.80;;;22.00;99.90;;;;;;6244356;22;20016;-80
2023/09/04 10:14:41;;;;;;;592.00;548.55;;;22.10;99.90;;;;;;6243531;22;20018;-80
2023/09/04 10:17:28;;;;;;;1898.88;999.90;;;22.20;99.90;;;;;;6269410;22;20066;-80
2023/09/04 10:19:58;;;;;;;1620.72;999.90;;;22.30;99.90;;;;;;6269571;22;20255;-80
2023/09/04 10:22:34;;;;;;;1999.90;999.90;;;22.40;99.90;;;;;;6243723;22;20012;-80
2023/09/04 10:25:15;;;;;;;915.22;812.20;;;22.50;99.90;;;;;;6243810;22;20011;-81
2023/09/04 10:27:54;;;;;;;1436.78;999.90;;;22.50;99.90;;;;;;6270619;22;20091;-80
2023/09/04 10:30:25;;;;;;;1999.90;999.90;;;22.60;99.90;;;;;;6271248;22;20033;-80
2023/09/04 10:32:54;;;;;;;1999.90;999.90;;;22.60;99.90;;;;;;6271382;22;20018;-79
2023/09/04 10:35:20;;;;;;;1999.90;999.90;;;22.70;99.90;;;;;;6243904;22;20023;-80
2023/09/04 10:37:48;;;;;;;1999.90;999.90;;;22.60;99.90;;;;;;6243842;22;20016;-80
2023/09/04 10:40:15;;;;;;;1500.82;999.90;;;22.60;99.90;;;;;;6269153;22;20019;-80
2023/09/04 10:42:42;;;;;;;1999.90;999.90;;;22.70;99.90;;;;;;6268824;22;20366;-80
2023/09/04 10:45:13;;;;;;;1999.90;999.90;;;22.80;99.90;;;;;;6243742;22;20347;-82
2023/09/04 10:47:46;;;;;;;1999.90;999.90;;;22.80;99.90;;;;;;6269678;22;20022;-80
2023/09/04 10:50:30;;;;;;;1999.90;999.90;;;23.00;99.90;;;;;;6270886;22;20365;-82
2023/09/04 10:52:57;;;;;;;1999.90;999.90;;;23.00;99.90;;;;;;6269387;22;20004;-82
2023/09/04 10:55:26;;;;;;;1999.90;780.50;;;23.10;99.90;;;;;;6244109;22;20064;-81
2023/09/04 10:57:56;;;;;;;1999.90;999.90;;;23.10;99.90;;;;;;6268748;22;20016;-80
2023/09/04 11:00:32;;;;;;;1999.90;999.90;;;23.10;99.90;;;;;;6269550;22;20030;-82
2023/09/04 11:03:18;;;;;;;1999.90;999.90;;;23.20;99.90;;;;;;6243738;22;20008;-79
2023/09/04 11:06:03;;;;;;;1999.90;999.90;;;23.30;99.90;;;;;;6271199;22;20008;-82
2023/09/04 11:08:34;;;;;;;1999.90;999.90;;;23.30;99.90;;;;;;6270504;22;20090;-81
2023/09/04 11:11:05;;;;;;;1510.72;193.40;;;23.40;99.90;;;;;;6244684;22;20060;-82
2023/09/04 11:13:38;;;;;;;1551.32;753.72;;;23.30;99.90;;;;;;6272929;22;20051;-82
2023/09/04 11:16:07;;;;;;;1999.90;999.90;;;23.30;99.90;;;;;;6245672;22;20012;-81
2023/09/04 11:18:37;;;;;;;1999.90;999.90;;;23.20;99.90;;;;;;6271192;22;20482;-82
2023/09/04 11:21:04;;;;;;;1999.90;999.90;;;23.30;99.90;;;;;;6245481;22;20073;-82
2023/09/04 11:23:36;;;;;;;1926.45;317.13;;;23.40;99.90;;;;;;6270684;22;20012;-82
2023/09/04 11:26:02;;;;;;;1999.90;999.90;;;23.50;99.90;;;;;;6244944;22;20107;-82
2023/09/04 11:28:31;;;;;;;1999.90;999.90;;;23.60;99.90;;;;;;6270880;22;20259;-82
2023/09/04 11:30:58;;;;;;;1999.90;999.90;;;23.60;99.90;;;;;;6272195;22;20016;-82
2023/09/04 11:33:25;;;;;;;1999.90;794.13;;;23.60;99.90;;;;;;6245185;22;20012;-82
2023/09/04 11:36:02;;;;;;;1752.22;228.98;;;23.60;99.90;;;;;;6245191;22;20513;-81
2023/09/04 11:38:36;;;;;;;1999.90;999.90;;;23.60;99.90;;;;;;6270576;22;20015;-80
2023/09/04 11:41:14;;;;;;;1999.90;999.90;;;23.60;99.90;;;;;;6270730;22;20404;-80
2023/09/04 11:43:41;;;;;;;1999.90;999.90;;;23.70;99.90;;;;;;6272410;22;20074;-81
2023/09/04 11:46:09;;;;;;;1999.90;999.90;;;23.80;99.90;;;;;;6270947;22;20012;-80
2023/09/04 11:48:35;;;;;;;1999.90;867.13;;;23.90;99.90;;;;;;6270464;22;20034;-80
2023/09/04 11:51:04;;;;;;;1999.90;999.90;;;23.90;99.90;;;;;;6245180;22;20008;-80
2023/09/04 11:53:31;;;;;;;1999.90;999.90;;;24.00;99.90;;;;;;6270531;22;20403;-81
2023/09/04 11:55:57;;;;;;;1999.90;999.90;;;24.10;99.90;;;;;;6270131;22;20007;-80
2023/09/04 11:58:23;;;;;;;1999.90;999.90;;;24.10;99.90;;;;;;6244620;22;20011;-80
2023/09/04 12:00:49;;;;;;;1999.90;999.90;;;24.00;99.90;;;;;;6270971;22;20385;-80
2023/09/04 12:03:14;;;;;;;1999.90;999.90;;;24.10;99.90;;;;;;6244316;22;20012;-80
2023/09/04 12:05:41;;;;;;;1999.90;999.90;;;24.00;99.90;;;;;;6270588;22;20016;-80
2023/09/04 12:08:07;;;;;;;1999.90;999.90;;;24.10;99.90;;;;;;6269962;22;20085;-80
2023/09/04 12:10:34;;;;;;;1999.90;999.90;;;24.10;99.90;;;;;;6270102;22;20023;-81
2023/09/04 12:13:01;;;;;;;1999.90;999.90;;;23.80;99.90;;;;;;6270531;22;20477;-81
2023/09/04 12:15:38;;;;;;;1999.90;999.90;;;23.90;99.90;;;;;;6244763;22;20518;-80
2023/09/04 12:18:06;;;;;;;1999.90;999.90;;;24.00;99.90;;;;;;6244632;22;20051;-80
2023/09/04 12:20:35;;;;;;;1999.90;999.90;;;24.10;99.90;;;;;;6244641;22;20095;-80
2023/09/04 12:23:02;;;;;;;1999.90;999.90;;;24.20;99.90;;;;;;6244666;22;20348;-80